Chadstone Weather > Observations for 05/04/21

Select Day:



Observations
Time Temp Hum DP Wind Gust Dir Rain >9am Press
C % C kph kph mm hPa
00:00 17.1 74 12.4 2.6 11.2 S 0.0 1010.2
00:10 16.9 76 12.7 3.5 9.7 S 0.0 1010.2
00:20 16.9 77 12.9 3.9 11.2 S 0.0 1010.2
00:30 16.8 77 12.8 3.4 15.8 SSW 0.0 1010.2
00:40 16.7 78 12.9 4.8 11.2 S 0.0 1010.3
00:50 16.7 78 12.9 4.7 14.8 SSE 0.0 1010.2
01:00 16.7 78 12.9 5.5 14.8 SSE 0.0 1010.2
01:10 16.6 78 12.8 6.0 13.3 S 0.0 1010.2
01:20 16.5 77 12.5 3.4 12.2 SSE 0.0 1010.3
01:30 16.4 77 12.4 2.9 8.6 S 0.0 1009.8
01:40 16.4 77 12.4 5.0 11.2 SSE 0.0 1011.1
01:50 16.5 77 12.5 4.3 9.7 SSE 0.0 1011.2
02:00 16.4 77 12.4 3.8 9.7 SSE 0.0 1011.3
02:10 16.4 77 12.4 3.4 9.7 SE 0.0 1011.4
02:20 16.4 76 12.2 2.6 8.6 SSE 0.0 1010.5
02:30 16.3 77 12.3 2.5 7.2 SE 0.0 1010.3
02:40 16.3 78 12.5 2.3 7.2 SE 0.0 1010.3
02:50 16.3 78 12.5 2.5 7.2 SSE 0.0 1009.8
03:00 16.4 77 12.4 3.3 11.2 SE 0.0 1010.1
03:10 16.4 77 12.4 3.7 11.2 SSE 0.0 1009.3
03:20 16.4 77 12.4 4.0 9.7 SE 0.0 1009.9
03:30 16.4 76 12.2 2.8 6.1 SSE 0.0 1009.2
03:40 16.5 76 12.3 2.3 6.1 SSE 0.0 1009.7
03:50 16.4 76 12.2 3.8 8.6 ESE 0.0 1009.0
04:00 16.4 76 12.2 2.2 9.7 SE 0.0 1009.5
04:10 16.4 76 12.2 2.7 7.2 SE 0.0 1009.1
04:20 16.4 75 12.0 2.2 9.7 SSE 0.0 1009.1
04:30 16.4 75 12.0 3.6 11.2 SSE 0.0 1009.4
04:40 16.3 75 11.9 4.2 11.2 SSE 0.0 1009.0
04:50 16.4 75 12.0 5.2 11.2 SE 0.0 1009.5
05:00 16.3 75 11.9 4.1 11.2 SSE 0.0 1009.0
05:10 16.3 74 11.7 5.3 12.2 SE 0.0 1009.5
05:20 16.3 74 11.7 4.1 9.7 SSE 0.0 1009.2
05:30 16.2 73 11.4 3.2 7.2 SE 0.0 1009.0
05:40 16.2 72 11.2 4.9 13.3 SSE 0.0 1009.5
05:50 16.2 72 11.2 3.1 8.6 SSE 0.0 1009.0
06:00 16.2 71 10.9 2.6 9.7 SE 0.0 1009.5
06:10 16.2 71 10.9 3.8 7.2 SE 0.0 1009.5
06:20 16.2 70 10.7 2.5 7.2 SE 0.0 1009.2
06:30 16.2 70 10.7 2.8 8.6 SSE 0.0 1009.3
06:40 16.2 70 10.7 1.8 8.6 S 0.0 1009.8
06:50 16.2 69 10.5 2.1 8.6 SSE 0.0 1009.8
07:00 16.2 69 10.5 3.0 9.7 SSE 0.0 1010.2
07:10 16.2 69 10.5 1.9 7.2 SSW 0.0 1009.8
07:20 16.2 69 10.5 2.7 8.6 SSE 0.0 1009.8
07:30 16.3 68 10.4 0.3 6.1 S 0.0 1010.0
07:40 16.3 69 10.6 2.2 8.6 SSE 0.0 1010.1
07:50 16.4 70 10.9 2.7 8.6 SE 0.0 1010.2
08:00 16.4 70 10.9 2.3 8.6 SSE 0.0 1010.3
08:10 16.5 70 11.0 1.8 8.6 SSE 0.0 1010.5
08:20 16.5 70 11.0 3.4 8.6 SSE 0.0 1010.3
08:30 16.6 68 10.7 4.0 12.2 SSE 0.0 1010.4
08:40 16.6 67 10.5 5.5 13.3 SSW 0.0 1010.4
08:50 16.7 66 10.3 3.5 12.2 S 0.0 1010.4
09:00 16.8 66 10.4 1.5 11.2 SSE 0.0 1010.5
09:10 17.0 64 10.1 2.3 9.7 S 0.0 1010.5
09:20 17.1 64 10.2 4.1 15.8 SSE 0.0 1010.5
09:30 17.2 64 10.3 1.2 8.6 SSE 0.0 1010.4
09:40 17.3 64 10.4 6.8 15.8 SSE 0.0 1010.4
09:50 17.3 64 10.4 3.8 13.3 SSE 0.0 1010.5
10:00 17.3 64 10.4 1.2 13.3 S 0.0 1010.4
10:10 17.5 64 10.6 3.8 14.8 S 0.0 1010.3
10:20 17.6 63 10.5 1.6 9.7 SW 0.0 1010.3
10:30 17.6 63 10.5 1.3 9.7 S 0.0 1010.4
10:40 17.7 63 10.6 4.4 11.2 SSE 0.0 1010.3
10:50 17.8 63 10.7 1.8 9.7 SSE 0.0 1010.3
11:00 17.8 63 10.7 2.2 14.8 NNE 0.0 1010.2
11:10 18.0 63 10.9 1.1 8.6 SE 0.0 1010.1
11:20 18.1 62 10.7 3.2 12.2 SE 0.0 1010.1
11:30 18.7 61 11.0 3.6 13.3 SE 0.0 1009.9
11:40 19.4 58 10.9 4.2 13.3 ESE 0.0 1009.8
11:50 19.2 59 11.0 2.3 13.3 ESE 0.0 1010.0
12:00 18.8 60 10.9 2.9 13.3 SSE 0.0 1010.3
12:10 19.2 59 11.0 1.8 13.3 S 0.0 1010.6
12:20 19.4 58 10.9 1.0 12.2 SSE 0.0 1010.6
12:30 19.4 58 10.9 1.1 12.2 S 0.0 1010.8
12:40 19.4 58 10.9 0.6 6.1 SE 0.0 1010.8
12:50 19.7 56 10.7 2.0 12.2 SSE 0.0 1010.6
13:00 19.8 57 11.0 5.1 17.3 SSE 0.0 1010.3
13:10 19.9 58 11.4 2.4 12.2 S 0.0 1010.3
13:20 19.6 58 11.1 0.7 13.3 S 0.0 1011.1
13:30 19.6 58 11.1 2.3 12.2 S 0.0 1011.3
13:40 19.7 59 11.5 0.2 6.1 SSW 0.0 1011.2
13:50 20.0 56 11.0 0.7 14.8 SW 0.0 1011.1
14:00 19.9 58 11.4 0.7 11.2 SSE 0.0 1011.0
14:10 19.8 58 11.3 2.5 15.8 S 0.0 1011.2
14:20 19.9 57 11.1 1.8 13.3 SSE 0.0 1011.2
14:30 19.8 59 11.6 0.9 9.7 S 0.0 1011.2
14:40 19.7 59 11.5 0.3 8.6 WNW 0.0 1011.1
14:50 19.8 58 11.3 1.0 11.2 SSW 0.0 1011.2
15:00 19.7 58 11.2 0.2 11.2 S 0.0 1011.2
15:10 19.9 58 11.4 3.7 14.8 S 0.0 1011.3
15:20 19.5 57 10.8 3.5 18.4 SSE 0.0 1011.3
15:30 19.5 57 10.8 2.0 15.8 SSE 0.0 1011.3
15:40 19.5 57 10.8 3.4 15.8 S 0.0 1011.4
15:50 19.2 56 10.2 2.5 12.2 SSE 0.0 1011.2
16:00 19.3 58 10.8 1.5 12.2 SSW 0.0 1011.4
16:10 19.1 60 11.2 0.9 11.2 SSW 0.0 1011.0
16:20 19.1 59 10.9 1.6 14.8 SSW 0.0 1011.3
16:30 18.7 62 11.3 1.8 12.2 SSW 0.0 1011.4
16:40 18.5 62 11.1 2.4 15.8 WSW 0.0 1011.5
16:50 18.4 62 11.0 0.6 12.2 SSW 0.0 1011.4
17:00 18.3 62 10.9 0.8 11.2 SSW 0.0 1011.5
17:10 18.2 61 10.6 0.8 9.7 SSE 0.0 1011.8
17:20 18.0 62 10.6 4.0 15.8 S 0.0 1011.8
17:30 17.8 62 10.4 5.6 15.8 SSE 0.0 1011.8
17:40 17.5 62 10.1 3.2 15.8 SSE 0.0 1011.2
17:50 17.1 63 10.0 2.2 12.2 S 0.0 1011.9
18:00 17.1 64 10.2 2.1 15.8 SSE 0.0 1012.3
18:10 16.9 65 10.3 4.0 13.3 S 0.0 1012.3
18:20 16.7 66 10.3 5.5 14.8 N 0.0 1012.6
18:30 16.5 67 10.4 3.4 15.8 SSW 0.0 1012.4
18:40 16.3 68 10.4 3.1 13.3 S 0.0 1011.9
18:50 16.2 69 10.5 3.0 12.2 S 0.0 1012.4
19:00 16.1 69 10.4 2.2 11.2 SW 0.0 1012.1
19:10 16.0 70 10.5 2.6 11.2 WSW 0.0 1012.1
19:20 15.8 72 10.8 2.9 13.3 SSW 0.0 1012.3
19:30 15.7 72 10.7 3.7 9.7 SSW 0.0 1012.5
19:40 15.6 73 10.8 3.4 11.2 SSE 0.0 1012.7
19:50 15.5 73 10.7 1.7 8.6 SW 0.0 1011.9
20:00 15.3 73 10.5 2.8 9.7 SSW 0.0 1012.5
20:10 15.2 74 10.6 2.0 8.6 SW 0.0 1012.7
20:20 15.2 74 10.6 2.8 8.6 SW 0.0 1012.7
20:30 15.1 74 10.5 2.3 6.1 SSW 0.0 1013.0
20:40 15.0 74 10.4 3.0 7.2 S 0.0 1013.0
20:50 14.9 76 10.7 1.7 7.2 S 0.0 1012.5
21:00 14.9 76 10.7 2.1 7.2 SSW 0.0 1012.9
21:10 14.8 76 10.6 1.6 6.1 S 0.0 1013.3
21:20 14.6 77 10.6 2.0 7.2 S 0.0 1013.4
21:30 14.6 77 10.6 1.6 5.0 SW 0.0 1012.8
21:40 14.5 77 10.5 1.1 5.0 SW 0.0 1012.0
21:50 14.4 78 10.6 1.7 6.1 SSW 0.0 1011.7
22:00 14.3 78 10.5 0.9 5.0 S 0.0 1011.8
22:10 14.2 78 10.4 0.9 6.1 WSW 0.0 1011.7
22:20 14.1 79 10.5 1.5 6.1 S 0.0 1011.7
22:30 14.0 79 10.4 1.5 6.1 SSW 0.0 1011.9
22:40 13.9 80 10.5 0.4 3.6 SSW 0.0 1011.9
22:50 13.6 81 10.4 0.2 5.0 S 0.0 1011.8
23:00 13.5 82 10.5 0.1 5.0 NNE 0.0 1011.8
23:10 13.6 83 10.8 0.7 5.0 NNE 0.0 1011.7
23:20 13.8 84 11.1 0.6 5.0 N 0.0 1011.8
23:30 14.0 84 11.3 1.4 6.1 NNE 0.0 1011.7
23:40 14.2 84 11.5 1.6 7.2 NNE 0.0 1011.7
23:50 14.3 84 11.6 0.4 6.1 NNE 0.0 1011.7